Time;durP1;ratioP1;P1;durP2;ratioP2;P2;SDS_P1;SDS_P2;PMS_P1;PMS_P2;Temp;Humidity;BMP_temperature;BMP_pressure;BME280_temperature;BME280_humidity;BME280_pressure;Samples;Min_cycle;Max_cycle;Signal;HPM_P1;HPM_P2
2021/12/28 00:00:04;;;;;;;16.05;10.23;;;;;;;8.86;61.84;93194.38;5045323;28;20079;-76
2021/12/28 00:02:30;;;;;;;16.00;8.35;;;;;;;8.92;60.55;93167.38;5025755;28;20040;-76
2021/12/28 00:04:55;;;;;;;13.40;7.22;;;;;;;8.79;60.88;93157.75;5048419;28;20037;-75
2021/12/28 00:07:21;;;;;;;12.35;7.85;;;;;;;8.87;60.97;93172.06;5048837;28;20046;-76
2021/12/28 00:09:46;;;;;;;14.25;8.23;;;;;;;9.01;60.96;93207.09;5044952;28;20493;-76
2021/12/28 00:12:11;;;;;;;11.30;7.25;;;;;;;8.88;61.37;93186.88;5042353;28;20041;-75
2021/12/28 00:14:38;;;;;;;13.98;6.57;;;;;;;8.90;61.36;93197.97;5038378;28;20251;-76
2021/12/28 00:19:49;;;;;;;8.00;4.30;;;;;;;9.02;61.39;93208.66;5036395;28;20052;-75
2021/12/28 00:22:14;;;;;;;7.35;4.50;;;;;;;9.14;60.72;93194.78;5039315;28;20037;-76
2021/12/28 00:24:40;;;;;;;10.45;4.90;;;;;;;9.01;60.51;93188.53;5037490;28;20056;-76
2021/12/28 00:27:05;;;;;;;8.15;4.22;;;;;;;9.05;60.87;93192.13;5041889;28;20141;-76
2021/12/28 00:29:31;;;;;;;6.53;4.40;;;;;;;9.16;60.75;93203.97;5041905;28;20331;-76
2021/12/28 00:31:57;;;;;;;8.88;3.92;;;;;;;9.21;60.38;93187.09;5041020;28;20045;-76
2021/12/28 00:34:23;;;;;;;7.88;3.90;;;;;;;9.29;59.54;93192.34;5043846;28;20063;-76
2021/12/28 00:36:48;;;;;;;6.07;4.45;;;;;;;9.39;59.79;93218.53;5031171;28;20037;-76
2021/12/28 00:39:13;;;;;;;7.88;5.60;;;;;;;9.53;59.39;93222.88;5048183;28;20552;-76
2021/12/28 00:41:39;;;;;;;8.77;5.15;;;;;;;9.40;59.45;93214.78;5044483;28;20036;-76
2021/12/28 00:44:05;;;;;;;8.77;5.72;;;;;;;9.30;59.58;93193.91;5042605;28;20056;-75
2021/12/28 00:46:30;;;;;;;6.05;4.50;;;;;;;9.16;60.50;93185.41;5048063;28;20492;-76
2021/12/28 00:48:56;;;;;;;5.78;3.78;;;;;;;9.43;59.86;93198.25;5044037;28;20544;-76
2021/12/28 00:51:21;;;;;;;10.30;4.15;;;;;;;9.23;60.82;93183.03;5044447;28;20048;-75
2021/12/28 00:53:46;;;;;;;5.90;3.90;;;;;;;9.18;60.77;93177.91;5041931;28;20037;-75
2021/12/28 00:56:12;;;;;;;7.80;4.43;;;;;;;9.42;60.55;93196.69;5039933;28;20017;-76
2021/12/28 00:58:37;;;;;;;7.68;4.10;;;;;;;9.49;60.37;93201.47;5039955;28;20029;-77
2021/12/28 01:01:04;;;;;;;5.75;4.00;;;;;;;9.57;60.20;93202.53;5042103;28;20456;-76
2021/12/28 01:03:34;;;;;;;5.82;3.78;;;;;;;9.52;59.96;93181.47;5040010;28;20588;-76
2021/12/28 01:06:01;;;;;;;4.88;3.45;;;;;;;9.71;59.70;93197.75;5042142;28;20042;-76
2021/12/28 01:08:27;;;;;;;6.45;3.40;;;;;;;9.34;60.29;93178.91;5041816;28;20045;-75
2021/12/28 01:10:54;;;;;;;9.10;5.30;;;;;;;9.60;59.77;93196.56;5041023;28;20021;-76
2021/12/28 01:13:21;;;;;;;5.63;3.38;;;;;;;9.19;61.06;93192.75;5043778;28;20072;-76
2021/12/28 01:15:48;;;;;;;4.25;3.03;;;;;;;9.00;61.80;93193.06;5039384;28;20044;-77
2021/12/28 01:18:13;;;;;;;4.50;2.80;;;;;;;8.97;62.11;93192.94;5045222;28;20033;-75
2021/12/28 01:20:40;;;;;;;4.40;3.03;;;;;;;8.59;64.37;93216.75;5042194;28;20457;-76
2021/12/28 01:23:08;;;;;;;7.45;3.58;;;;;;;8.95;63.48;93219.00;5039914;28;20614;-76
2021/12/28 01:25:34;;;;;;;4.88;3.42;;;;;;;9.11;62.56;93206.78;5024927;28;20036;-77
2021/12/28 01:28:00;;;;;;;3.00;2.60;;;;;;;9.36;61.46;93203.25;5043892;28;20041;-76
2021/12/28 01:30:28;;;;;;;4.78;2.58;;;;;;;9.25;60.86;93185.34;5042331;28;20361;-75
2021/12/28 01:32:56;;;;;;;4.85;3.20;;;;;;;9.15;61.47;93189.13;5040993;28;20045;-75
2021/12/28 01:35:22;;;;;;;4.38;2.75;;;;;;;8.97;62.37;93200.88;5037896;28;20049;-77
2021/12/28 01:37:49;;;;;;;4.40;3.13;;;;;;;8.55;64.50;93192.75;5044530;28;20025;-76
2021/12/28 01:40:23;;;;;;;4.70;2.88;;;;;;;8.76;64.00;93208.72;5042640;28;20051;-77
2021/12/28 01:43:07;;;;;;;6.25;2.67;;;;;;;9.04;62.67;93206.50;5041143;28;20080;-76
2021/12/28 01:45:50;;;;;;;4.82;2.78;;;;;;;8.98;62.74;93207.75;5039933;28;20049;-77
2021/12/28 01:48:31;;;;;;;3.97;2.50;;;;;;;8.94;62.19;93212.91;5022548;28;20079;-76
2021/12/28 01:51:08;;;;;;;2.78;2.40;;;;;;;8.63;63.21;93211.56;5043363;28;20088;-76
2021/12/28 01:53:34;;;;;;;4.43;2.60;;;;;;;8.55;64.31;93202.56;5045472;28;20036;-75
2021/12/28 01:56:07;;;;;;;4.00;3.05;;;;;;;8.59;64.54;93204.28;5040206;28;20029;-75
2021/12/28 01:58:33;;;;;;;4.95;3.17;;;;;;;8.58;64.06;93207.22;5022825;28;20055;-76
2021/12/28 02:00:59;;;;;;;3.92;2.67;;;;;;;8.58;64.53;93208.00;5042240;28;20037;-75
2021/12/28 02:03:27;;;;;;;3.97;2.42;;;;;;;8.39;64.70;93186.38;5047968;28;20131;-76
2021/12/28 02:05:53;;;;;;;4.25;2.85;;;;;;;8.46;64.64;93202.56;5047612;28;20047;-76
2021/12/28 02:08:20;;;;;;;6.65;3.30;;;;;;;8.46;65.29;93202.56;5051493;28;20084;-76
2021/12/28 02:10:48;;;;;;;6.03;3.42;;;;;;;8.52;64.96;93201.31;5045922;28;20061;-77
2021/12/28 02:13:15;;;;;;;4.28;3.22;;;;;;;8.72;63.90;93196.44;5045655;28;20033;-76
2021/12/28 02:15:41;;;;;;;4.28;2.80;;;;;;;8.62;63.21;93172.91;5046737;28;20033;-76
2021/12/28 02:18:11;;;;;;;5.82;2.88;;;;;;;8.98;61.99;93186.53;5051200;28;20056;-77
2021/12/28 02:20:37;;;;;;;3.70;3.05;;;;;;;8.93;62.50;93202.63;5044126;28;20056;-75
2021/12/28 02:23:04;;;;;;;4.80;2.92;;;;;;;9.11;61.89;93190.88;5047612;28;20025;-76
2021/12/28 02:25:31;;;;;;;6.05;3.10;;;;;;;8.96;61.73;93180.75;5048846;28;20025;-76
2021/12/28 02:27:57;;;;;;;5.05;3.15;;;;;;;8.97;62.44;93192.94;5056656;28;20561;-76
2021/12/28 02:30:23;;;;;;;4.75;3.67;;;;;;;8.87;61.83;93174.72;5047956;28;20041;-78
2021/12/28 02:32:50;;;;;;;4.38;3.90;;;;;;;8.94;61.58;93169.72;5049684;28;20791;-76
2021/12/28 02:35:22;;;;;;;5.47;3.75;;;;;;;9.12;61.33;93181.81;5049987;28;20024;-77
2021/12/28 02:37:49;;;;;;;5.95;2.78;;;;;;;9.26;61.23;93190.34;5049763;28;20033;-75
2021/12/28 02:40:18;;;;;;;5.35;4.13;;;;;;;9.18;61.21;93185.88;5048960;28;20029;-77
2021/12/28 02:42:44;;;;;;;5.00;3.80;;;;;;;9.09;61.64;93193.06;5051935;28;20109;-76
2021/12/28 02:45:13;;;;;;;5.15;3.80;;;;;;;9.06;61.61;93188.38;5051659;28;20063;-76
2021/12/28 02:47:43;;;;;;;6.93;3.90;;;;;;;9.02;61.48;93182.16;5049363;28;20041;-77
2021/12/28 02:50:17;;;;;;;5.60;3.42;;;;;;;9.21;60.84;93190.53;5051861;28;20036;-76
2021/12/28 02:52:42;;;;;;;5.63;3.75;;;;;;;9.28;60.80;93201.44;5048506;28;20047;-77
2021/12/28 02:55:10;;;;;;;6.13;3.90;;;;;;;9.17;61.26;93199.44;5049049;28;20045;-77
2021/12/28 02:57:36;;;;;;;4.97;3.00;;;;;;;9.02;60.99;93160.94;5059834;28;20041;-76
2021/12/28 03:00:05;;;;;;;5.10;3.15;;;;;;;9.13;60.76;93194.00;5048002;28;20037;-76
2021/12/28 03:02:30;;;;;;;6.35;3.10;;;;;;;9.02;61.58;93198.84;5040815;28;20048;-77
2021/12/28 03:04:56;;;;;;;4.43;3.53;;;;;;;8.93;62.27;93205.28;5048835;28;20021;-77
2021/12/28 03:07:22;;;;;;;5.70;4.07;;;;;;;8.99;61.79;93207.44;5044234;28;20064;-76
2021/12/28 03:09:48;;;;;;;6.70;3.63;;;;;;;9.03;61.70;93202.28;5050115;28;20079;-77
2021/12/28 03:12:14;;;;;;;5.45;3.85;;;;;;;9.01;61.09;93185.88;5045601;28;20341;-77
2021/12/28 03:14:39;;;;;;;4.57;3.38;;;;;;;9.15;60.71;93207.72;5046477;28;20048;-76
2021/12/28 03:17:05;;;;;;;7.53;3.85;;;;;;;8.90;61.13;93179.41;5044491;28;20018;-77
2021/12/28 03:19:30;;;;;;;6.80;3.97;;;;;;;8.95;61.45;93185.28;5046130;28;20037;-76
2021/12/28 03:21:59;;;;;;;8.80;6.05;;;;;;;8.89;61.38;93173.31;5048775;28;20052;-76
2021/12/28 03:24:26;;;;;;;8.65;5.00;;;;;;;9.03;61.22;93181.06;5044978;28;20057;-77
2021/12/28 03:26:52;;;;;;;7.03;4.40;;;;;;;9.12;60.88;93184.47;5044262;28;20028;-77
2021/12/28 03:29:17;;;;;;;5.35;3.55;;;;;;;9.24;60.66;93184.56;5048971;28;20414;-77
2021/12/28 03:31:43;;;;;;;9.13;4.65;;;;;;;9.37;59.84;93190.78;5047419;28;20013;-75
2021/12/28 03:34:08;;;;;;;9.23;5.00;;;;;;;9.30;59.89;93188.59;5049368;28;20052;-76
2021/12/28 03:36:34;;;;;;;8.23;4.47;;;;;;;9.31;60.12;93190.16;5051714;28;20381;-76
2021/12/28 03:39:01;;;;;;;9.27;5.22;;;;;;;9.42;59.53;93186.06;5059132;28;20040;-76
2021/12/28 03:41:28;;;;;;;8.82;5.40;;;;;;;9.14;59.77;93169.03;5051649;28;20562;-76
2021/12/28 03:43:55;;;;;;;9.73;4.82;;;;;;;8.92;61.22;93182.50;5051617;28;20035;-75
2021/12/28 03:46:22;;;;;;;6.18;5.05;;;;;;;8.73;62.40;93190.81;5042211;28;20063;-76
2021/12/28 03:48:47;;;;;;;6.95;4.45;;;;;;;8.77;62.96;93199.69;5044190;28;20036;-75
2021/12/28 03:51:13;;;;;;;6.60;4.45;;;;;;;8.71;62.37;93178.97;5027485;28;20044;-77
2021/12/28 03:53:39;;;;;;;5.80;4.57;;;;;;;8.59;63.06;93196.31;5047595;28;20501;-77
2021/12/28 03:56:08;;;;;;;8.45;5.28;;;;;;;7.73;66.84;93190.25;5047214;28;20389;-77
2021/12/28 03:58:34;;;;;;;9.00;5.63;;;;;;;7.95;66.40;93168.94;5043952;28;20072;-76
2021/12/28 04:01:03;;;;;;;11.43;6.57;;;;;;;8.35;64.75;93190.75;5044741;28;20032;-78
2021/12/28 04:03:28;;;;;;;8.23;5.53;;;;;;;8.33;63.76;93163.78;5041993;28;20128;-76
2021/12/28 04:05:54;;;;;;;10.35;5.78;;;;;;;8.69;63.25;93194.41;5051117;28;20061;-77
2021/12/28 04:08:22;;;;;;;9.30;5.97;;;;;;;8.79;62.14;93183.47;5046470;28;20052;-76
2021/12/28 04:10:52;;;;;;;9.15;6.13;;;;;;;8.95;61.39;93195.13;5053190;28;20104;-77
2021/12/28 04:13:20;;;;;;;11.25;6.18;;;;;;;9.01;61.07;93218.50;5044043;28;20037;-77
2021/12/28 04:15:46;;;;;;;7.97;5.15;;;;;;;9.04;60.92;93201.19;5045019;28;20041;-75
2021/12/28 04:18:13;;;;;;;11.38;5.65;;;;;;;8.61;62.91;93203.94;5048048;28;20056;-76
2021/12/28 04:20:39;;;;;;;11.27;6.13;;;;;;;8.68;62.96;93195.50;5047518;28;20051;-77
2021/12/28 04:23:04;;;;;;;7.80;5.00;;;;;;;8.92;62.21;93209.00;5042143;28;20018;-76
2021/12/28 04:25:31;;;;;;;11.25;5.57;;;;;;;8.63;62.70;93185.84;5045611;28;20037;-76
2021/12/28 04:27:56;;;;;;;7.95;4.85;;;;;;;8.89;61.68;93193.75;5039847;28;20087;-77
2021/12/28 04:30:22;;;;;;;8.15;5.18;;;;;;;9.04;61.16;93222.41;5046957;28;20568;-77
2021/12/28 04:32:47;;;;;;;10.90;6.25;;;;;;;8.97;60.78;93185.75;5046163;28;20025;-77
2021/12/28 04:35:14;;;;;;;7.72;4.55;;;;;;;9.22;59.92;93208.00;5044499;28;20036;-77
2021/12/28 04:37:40;;;;;;;12.20;5.88;;;;;;;9.02;59.88;93187.44;5041807;28;20417;-76
2021/12/28 04:40:07;;;;;;;11.88;5.68;;;;;;;9.29;59.66;93215.47;5045541;28;20097;-76
2021/12/28 04:42:33;;;;;;;10.68;5.82;;;;;;;9.09;59.61;93200.22;5042773;28;20041;-77
2021/12/28 04:44:58;;;;;;;8.10;5.30;;;;;;;9.15;59.23;93213.00;5044845;28;20033;-77
2021/12/28 04:47:24;;;;;;;8.90;4.57;;;;;;;8.87;59.52;93206.53;5051504;28;20246;-76
2021/12/28 04:49:50;;;;;;;8.65;5.07;;;;;;;8.83;60.18;93216.22;5046863;28;20512;-76
2021/12/28 04:52:15;;;;;;;8.07;4.10;;;;;;;8.70;60.47;93210.03;5040504;28;20041;-76
2021/12/28 04:54:41;;;;;;;6.07;3.53;;;;;;;8.81;60.47;93213.09;5047113;28;20041;-78
2021/12/28 04:57:07;;;;;;;6.38;3.58;;;;;;;8.80;59.79;93200.94;5040822;28;20060;-77
2021/12/28 04:59:33;;;;;;;4.85;2.83;;;;;;;8.85;59.82;93209.50;5047150;28;20776;-76
2021/12/28 05:01:58;;;;;;;3.67;2.55;;;;;;;8.77;59.68;93207.66;5049140;28;20054;-76
2021/12/28 05:04:24;;;;;;;3.33;2.28;;;;;;;8.81;59.65;93197.19;5049457;28;20132;-77
2021/12/28 05:06:53;;;;;;;4.70;2.90;;;;;;;8.91;59.50;93210.88;5039882;28;20060;-77
2021/12/28 05:09:18;;;;;;;19.80;9.68;;;;;;;8.76;59.63;93184.09;5040727;28;20021;-76
2021/12/28 05:11:45;;;;;;;17.35;11.38;;;;;;;8.88;59.54;93203.56;5033620;28;20168;-76
2021/12/28 05:14:11;;;;;;;15.02;11.07;;;;;;;8.95;59.13;93209.16;5048477;28;20090;-77
2021/12/28 05:16:38;;;;;;;15.48;9.45;;;;;;;8.72;58.63;93157.44;5043558;28;20052;-75
2021/12/28 05:19:06;;;;;;;15.25;8.32;;;;;;;9.03;58.76;93215.53;5041521;28;20037;-77
2021/12/28 05:21:32;;;;;;;8.93;6.18;;;;;;;9.01;58.72;93204.47;5044176;28;20025;-77
2021/12/28 05:23:58;;;;;;;12.00;6.47;;;;;;;9.05;58.98;93202.72;5047560;28;20060;-79
2021/12/28 05:26:24;;;;;;;8.85;5.82;;;;;;;9.00;58.93;93186.97;5033701;28;20389;-77
2021/12/28 05:28:50;;;;;;;13.15;6.90;;;;;;;9.18;58.83;93195.69;5049786;28;20025;-76
2021/12/28 05:31:16;;;;;;;11.30;6.25;;;;;;;9.36;58.50;93208.56;5047861;28;20836;-76
2021/12/28 05:33:42;;;;;;;10.10;5.75;;;;;;;9.21;58.74;93206.44;5042649;28;20045;-77
2021/12/28 05:36:08;;;;;;;7.10;5.15;;;;;;;8.89;59.52;93213.09;5040182;28;20405;-77
2021/12/28 05:38:34;;;;;;;10.30;5.05;;;;;;;9.14;59.06;93208.81;5040349;28;20036;-75
2021/12/28 05:41:00;;;;;;;9.10;4.78;;;;;;;9.25;58.79;93220.63;5042369;28;20025;-76
2021/12/28 05:43:26;;;;;;;7.45;5.05;;;;;;;9.14;58.77;93216.78;5041609;28;20071;-76
2021/12/28 05:45:51;;;;;;;5.28;4.55;;;;;;;8.93;59.49;93221.97;5042540;28;20113;-78
2021/12/28 05:48:17;;;;;;;5.55;3.58;;;;;;;8.91;59.70;93234.75;5030758;28;20041;-77
2021/12/28 05:50:43;;;;;;;7.25;4.70;;;;;;;8.72;60.07;93228.25;5024988;28;20033;-76
2021/12/28 05:53:08;;;;;;;7.18;4.05;;;;;;;8.65;59.90;93210.19;5040487;28;20099;-77
2021/12/28 05:55:34;;;;;;;7.13;3.78;;;;;;;8.61;59.93;93209.22;5027082;28;20106;-77
2021/12/28 05:57:59;;;;;;;8.60;5.38;;;;;;;8.69;60.86;93232.31;5041352;28;20071;-77
2021/12/28 06:00:28;;;;;;;8.50;4.60;;;;;;;8.65;60.39;93220.78;5029636;28;20029;-77
2021/12/28 06:02:54;;;;;;;7.05;3.78;;;;;;;8.68;60.66;93220.16;5045331;28;20708;-76
2021/12/28 06:05:19;;;;;;;7.80;4.00;;;;;;;8.83;60.22;93243.50;5042577;28;20025;-77
2021/12/28 06:07:45;;;;;;;3.80;2.97;;;;;;;8.88;59.89;93237.25;5045102;28;20057;-76
2021/12/28 06:10:10;;;;;;;6.32;4.05;;;;;;;8.90;59.57;93232.44;5041945;28;20041;-78
2021/12/28 06:12:36;;;;;;;7.68;3.80;;;;;;;8.87;59.57;93233.81;5030272;28;20052;-76
2021/12/28 06:15:05;;;;;;;5.97;3.50;;;;;;;8.83;59.55;93216.22;5047821;28;20037;-76
2021/12/28 06:17:30;;;;;;;4.82;2.97;;;;;;;9.10;58.72;93229.06;5053847;28;20274;-77
2021/12/28 06:19:56;;;;;;;3.53;2.50;;;;;;;8.80;59.88;93212.34;5040543;28;20549;-76
2021/12/28 06:22:21;;;;;;;5.65;2.83;;;;;;;8.52;61.31;93227.81;5039758;28;20041;-77
2021/12/28 06:24:48;;;;;;;3.50;2.72;;;;;;;8.52;62.04;93232.31;5044582;28;20037;-76
2021/12/28 06:27:13;;;;;;;4.35;2.92;;;;;;;8.70;60.99;93233.09;5033150;28;20041;-76
2021/12/28 06:29:39;;;;;;;4.45;2.90;;;;;;;8.46;61.65;93213.16;5041097;28;20471;-77
2021/12/28 06:32:05;;;;;;;5.38;3.45;;;;;;;8.57;61.70;93218.91;5032496;28;20032;-77
2021/12/28 06:34:30;;;;;;;9.15;4.35;;;;;;;8.46;61.55;93213.16;5042276;28;20041;-76
2021/12/28 06:36:56;;;;;;;7.72;4.30;;;;;;;8.71;61.03;93234.63;5040261;28;20501;-77
2021/12/28 06:39:21;;;;;;;18.00;9.65;;;;;;;8.38;61.44;93224.53;5043127;28;20156;-77
2021/12/28 06:41:47;;;;;;;20.13;11.10;;;;;;;8.49;62.40;93243.56;5050842;28;20037;-77
2021/12/28 06:44:12;;;;;;;11.07;8.45;;;;;;;8.65;61.44;93252.59;5047430;28;20637;-77
2021/12/28 06:46:38;;;;;;;17.58;10.70;;;;;;;8.72;60.94;93246.78;5052369;28;20040;-77
2021/12/28 06:49:04;;;;;;;10.90;7.70;;;;;;;8.92;60.70;93256.75;5047471;28;20096;-77
2021/12/28 06:51:30;;;;;;;14.48;7.25;;;;;;;9.00;60.51;93243.47;5049924;28;20044;-76
2021/12/28 06:53:56;;;;;;;10.65;7.57;;;;;;;9.15;60.11;93259.97;5040724;28;20472;-76
2021/12/28 06:56:22;;;;;;;10.93;6.82;;;;;;;9.12;60.31;93255.31;5051912;28;20036;-76
2021/12/28 06:58:47;;;;;;;9.43;6.53;;;;;;;9.18;60.19;93267.31;5043867;28;20025;-76
2021/12/28 07:01:12;;;;;;;7.47;5.30;;;;;;;9.05;60.66;93253.13;5033170;28;20596;-77
2021/12/28 07:03:38;;;;;;;7.63;5.50;;;;;;;9.00;61.04;93256.72;5045024;28;20099;-78
2021/12/28 07:06:03;;;;;;;9.45;5.97;;;;;;;9.14;61.03;93256.56;5047494;28;20037;-77
2021/12/28 07:08:29;;;;;;;7.95;5.72;;;;;;;9.23;61.52;93265.28;5037620;28;20626;-78
2021/12/28 07:10:55;;;;;;;11.73;6.03;;;;;;;9.06;61.38;93249.38;5046338;28;20204;-76
2021/12/28 07:13:21;;;;;;;10.98;6.70;;;;;;;9.28;61.60;93269.63;5047303;28;20052;-77
2021/12/28 07:15:47;;;;;;;16.67;7.72;;;;;;;8.88;61.40;93192.19;5050315;28;20044;-77
2021/12/28 07:18:12;;;;;;;11.00;7.68;;;;;;;9.42;61.21;93249.75;5051548;28;20044;-77
2021/12/28 07:20:38;;;;;;;13.65;6.63;;;;;;;9.45;61.10;93259.72;5048277;28;20041;-77
2021/12/28 07:23:03;;;;;;;12.45;7.35;;;;;;;9.45;61.20;93246.47;5043121;28;20056;-76
2021/12/28 07:25:29;;;;;;;11.23;7.05;;;;;;;9.60;61.12;93258.41;5039525;28;22095;-78
2021/12/28 07:27:55;;;;;;;9.93;6.80;;;;;;;9.64;60.81;93255.88;5043497;28;20501;-77
2021/12/28 07:30:20;;;;;;;11.23;7.43;;;;;;;9.74;60.54;93260.84;5048250;28;20116;-77
2021/12/28 07:32:46;;;;;;;12.90;7.97;;;;;;;9.67;60.11;93256.06;5029277;28;20075;-78
2021/12/28 07:35:12;;;;;;;17.13;8.05;;;;;;;9.75;60.00;93247.25;5035272;28;20016;-78
2021/12/28 07:37:38;;;;;;;15.10;8.65;;;;;;;9.96;60.14;93276.50;5023086;28;20401;-77
2021/12/28 07:40:04;;;;;;;14.15;8.32;;;;;;;9.99;60.21;93272.41;5050599;28;20061;-77
2021/12/28 07:42:30;;;;;;;11.82;7.45;;;;;;;9.75;60.06;93259.75;5028664;28;20044;-76
2021/12/28 07:44:55;;;;;;;20.23;13.10;;;;;;;9.46;61.16;93276.44;5046736;28;20045;-78
2021/12/28 07:47:21;;;;;;;26.98;14.40;;;;;;;8.81;64.24;93258.94;5040595;28;20320;-76
2021/12/28 07:49:46;;;;;;;22.42;13.38;;;;;;;8.78;65.09;93261.47;5041430;28;20017;-76
2021/12/28 07:52:12;;;;;;;16.48;8.77;;;;;;;8.72;66.76;93273.31;5047106;28;20056;-76
2021/12/28 07:54:37;;;;;;;13.55;8.38;;;;;;;8.10;68.58;93252.44;5044085;28;20041;-76
2021/12/28 07:57:03;;;;;;;14.10;7.10;;;;;;;7.71;70.36;93262.00;5041139;28;20087;-77
2021/12/28 07:59:28;;;;;;;13.38;7.65;;;;;;;7.50;70.66;93244.34;5043255;28;20116;-77
2021/12/28 08:01:54;;;;;;;10.48;6.93;;;;;;;7.56;71.34;93267.72;5043239;28;20075;-77
2021/12/28 08:04:20;;;;;;;16.10;7.38;;;;;;;7.27;72.91;93270.09;5044604;28;20041;-77
2021/12/28 08:06:45;;;;;;;15.00;8.77;;;;;;;6.83;74.35;93258.53;5046621;28;20563;-77
2021/12/28 08:09:11;;;;;;;12.32;7.90;;;;;;;6.93;74.95;93285.81;5041140;28;20082;-76
2021/12/28 08:11:36;;;;;;;15.98;7.80;;;;;;;6.98;74.65;93264.53;5043848;28;20045;-76
2021/12/28 08:14:03;;;;;;;13.27;8.60;;;;;;;6.76;74.88;93247.59;5051179;28;20039;-76
2021/12/28 08:16:28;;;;;;;12.40;8.32;;;;;;;6.74;74.73;93246.34;5045056;28;20557;-77
2021/12/28 08:18:53;;;;;;;12.55;8.52;;;;;;;6.88;76.08;93280.63;5034715;28;20030;-77
2021/12/28 08:21:20;;;;;;;14.95;8.55;;;;;;;7.14;75.52;93269.09;5047047;28;20494;-77
2021/12/28 08:23:46;;;;;;;15.57;8.82;;;;;;;7.44;75.05;93270.16;5040766;28;20029;-77
2021/12/28 08:26:12;;;;;;;12.52;7.90;;;;;;;6.93;75.41;93251.44;5041876;28;20390;-77
2021/12/28 08:28:38;;;;;;;14.15;8.30;;;;;;;7.33;74.78;93284.75;5041967;28;20037;-77
2021/12/28 08:31:03;;;;;;;15.85;8.70;;;;;;;7.29;74.99;93270.56;5027667;28;20043;-78
2021/12/28 08:33:29;;;;;;;14.32;8.52;;;;;;;6.90;75.82;93270.56;5046424;28;20040;-78
2021/12/28 08:35:56;;;;;;;12.65;7.88;;;;;;;7.16;75.42;93268.81;5042511;28;20160;-76
2021/12/28 08:38:21;;;;;;;28.83;12.45;;;;;;;7.08;75.47;93285.41;5045801;28;20097;-77
2021/12/28 08:40:47;;;;;;;16.60;8.90;;;;;;;7.00;75.77;93283.50;5042510;28;20049;-77
2021/12/28 08:43:12;;;;;;;16.25;7.82;;;;;;;6.96;75.46;93278.03;5041506;28;20087;-77
2021/12/28 08:45:40;;;;;;;14.35;7.90;;;;;;;7.44;74.67;93280.75;5025996;28;20120;-77
2021/12/28 08:48:06;;;;;;;9.10;6.47;;;;;;;7.95;73.26;93274.06;5032608;28;20037;-77
2021/12/28 08:50:32;;;;;;;11.43;6.53;;;;;;;8.15;72.09;93274.25;5037755;28;20029;-76
2021/12/28 08:52:58;;;;;;;13.45;6.30;;;;;;;7.82;71.51;93251.16;5047355;28;20016;-77
2021/12/28 08:55:24;;;;;;;8.65;5.75;;;;;;;8.02;71.07;93256.63;5039342;28;20068;-77
2021/12/28 08:57:50;;;;;;;7.05;5.13;;;;;;;8.40;69.81;93262.13;5045508;28;20037;-77
2021/12/28 09:00:22;;;;;;;6.85;4.68;;;;;;;8.87;68.54;93264.88;5047341;28;20604;-77
2021/12/28 09:02:50;;;;;;;11.00;5.15;;;;;;;9.08;67.12;93264.97;5041505;28;20042;-77
2021/12/28 09:05:15;;;;;;;6.80;5.00;;;;;;;8.58;67.00;93262.88;5045402;28;20025;-77
2021/12/28 09:07:41;;;;;;;12.60;5.82;;;;;;;8.62;67.34;93229.34;5047359;28;20068;-77
2021/12/28 09:10:07;;;;;;;6.53;5.05;;;;;;;9.17;66.67;93260.47;5044017;28;20052;-77
2021/12/28 09:12:32;;;;;;;8.65;4.80;;;;;;;8.93;66.03;93253.00;5033734;28;20141;-77
2021/12/28 09:14:58;;;;;;;9.73;5.82;;;;;;;8.63;66.86;93244.16;5043112;28;20068;-76
2021/12/28 09:17:23;;;;;;;7.45;4.45;;;;;;;8.97;65.72;93240.66;5047699;28;20029;-77
2021/12/28 09:19:49;;;;;;;7.72;5.70;;;;;;;9.54;64.57;93261.56;5028188;28;20041;-79
2021/12/28 09:22:14;;;;;;;11.35;7.22;;;;;;;9.05;64.89;93255.78;5041131;28;20095;-76
2021/12/28 09:24:39;;;;;;;9.40;5.47;;;;;;;8.66;64.97;93240.13;5042987;28;20047;-76
2021/12/28 09:27:06;;;;;;;8.68;5.28;;;;;;;8.28;66.22;93219.56;5026663;28;20045;-76
2021/12/28 09:29:32;;;;;;;13.00;6.70;;;;;;;8.35;66.72;93235.78;5041301;28;20021;-76
2021/12/28 09:31:59;;;;;;;8.57;5.88;;;;;;;8.56;66.56;93238.56;5039126;28;20060;-77
2021/12/28 09:34:25;;;;;;;6.72;4.47;;;;;;;8.51;66.51;93247.44;5033408;28;20135;-75
2021/12/28 09:36:51;;;;;;;7.75;4.95;;;;;;;8.63;66.72;93246.81;5041190;28;20173;-76
2021/12/28 09:39:22;;;;;;;10.90;7.13;;;;;;;8.33;66.92;93237.94;5045081;28;20605;-76
2021/12/28 09:41:50;;;;;;;7.53;4.88;;;;;;;8.29;67.13;93252.91;5032936;28;20122;-76
2021/12/28 09:44:16;;;;;;;9.18;5.00;;;;;;;8.34;67.37;93238.72;5048116;28;20023;-75
2021/12/28 09:46:41;;;;;;;7.85;4.88;;;;;;;8.39;66.70;93212.88;5039251;28;20033;-77
2021/12/28 09:49:07;;;;;;;7.57;5.03;;;;;;;8.30;66.83;93219.25;5034787;28;20064;-76
2021/12/28 09:51:32;;;;;;;9.23;5.55;;;;;;;8.65;66.26;93235.91;5032114;28;20056;-76
2021/12/28 09:53:58;;;;;;;9.45;5.90;;;;;;;8.73;65.21;93221.84;5028005;28;20405;-77
2021/12/28 09:56:23;;;;;;;7.45;5.15;;;;;;;9.07;65.32;93237.69;5041793;28;20001;-76
2021/12/28 09:58:49;;;;;;;7.15;4.80;;;;;;;9.48;64.32;93223.03;5031401;28;20014;-78
2021/12/28 10:01:14;;;;;;;11.85;6.47;;;;;;;9.62;63.56;93228.91;5040140;28;20552;-77
2021/12/28 10:03:39;;;;;;;8.35;5.05;;;;;;;10.10;62.83;93221.25;5032589;28;20056;-77
2021/12/28 10:06:21;;;;;;;7.28;4.00;;;;;;;10.44;61.57;93230.09;5043733;28;20071;-76
2021/12/28 10:09:01;;;;;;;15.77;7.80;;;;;;;10.48;59.63;93220.34;5042818;28;20627;-76
2021/12/28 10:11:48;;;;;;;7.25;4.93;;;;;;;10.78;59.30;93224.47;5042225;28;20032;-77
2021/12/28 10:14:23;;;;;;;16.27;7.13;;;;;;;10.16;59.85;93214.66;5027597;28;20057;-77
2021/12/28 10:16:52;;;;;;;10.98;6.60;;;;;;;9.32;62.42;93202.34;5043340;28;20033;-75
2021/12/28 10:19:38;;;;;;;12.73;7.00;;;;;;;9.48;63.11;93226.47;5047607;28;20045;-77
2021/12/28 10:22:20;;;;;;;13.63;8.75;;;;;;;9.56;64.52;93224.88;5053632;28;20048;-76
2021/12/28 10:24:47;;;;;;;21.13;11.45;;;;;;;9.37;64.68;93215.44;5058963;28;20033;-76
2021/12/28 10:27:16;;;;;;;15.55;8.63;;;;;;;9.64;64.55;93216.06;5051247;28;20041;-77
2021/12/28 10:29:42;;;;;;;17.60;10.50;;;;;;;9.37;64.57;93204.81;5047663;28;20040;-77
2021/12/28 10:32:29;;;;;;;15.38;9.18;;;;;;;9.52;64.21;93211.47;5030100;28;20021;-78
2021/12/28 10:35:00;;;;;;;13.18;8.93;;;;;;;9.56;63.51;93206.28;5051585;28;20107;-76
2021/12/28 10:37:32;;;;;;;13.48;9.02;;;;;;;9.62;63.77;93210.31;5046850;28;20038;-77
2021/12/28 10:39:59;;;;;;;14.55;8.52;;;;;;;9.47;62.96;93209.00;5030532;28;20108;-77
2021/12/28 10:42:37;;;;;;;22.50;12.18;;;;;;;9.68;62.89;93224.97;5050166;28;20123;-77
2021/12/28 10:45:11;;;;;;;169.90;51.70;;;;;;;9.85;62.42;93199.06;5049953;28;20565;-76
2021/12/28 10:47:38;;;;;;;20.52;11.73;;;;;;;10.06;61.00;93185.81;5048934;28;20052;-77
2021/12/28 10:50:29;;;;;;;23.45;13.30;;;;;;;10.48;59.77;93215.03;5046861;28;20112;-77
2021/12/28 10:53:04;;;;;;;13.57;7.93;;;;;;;10.75;58.49;93211.81;5048246;28;20036;-77
2021/12/28 10:55:31;;;;;;;9.90;6.43;;;;;;;10.94;57.42;93216.63;5046017;28;20387;-78
2021/12/28 10:57:57;;;;;;;11.55;7.85;;;;;;;10.82;57.14;93204.06;5046359;28;20341;-76
2021/12/28 11:00:26;;;;;;;11.63;7.07;;;;;;;10.63;57.50;93212.56;5049149;28;20098;-77
2021/12/28 11:03:26;;;;;;;8.88;7.00;;;;;;;10.78;57.49;93203.19;5050709;28;20040;-78
2021/12/28 11:05:55;;;;;;;14.65;9.48;;;;;;;10.75;57.26;93179.91;5039261;28;20049;-78
2021/12/28 11:08:23;;;;;;;16.98;11.25;;;;;;;10.62;57.21;93199.56;5042600;28;20045;-77
2021/12/28 11:10:53;;;;;;;11.80;6.60;;;;;;;10.08;58.47;93178.28;5050920;28;21038;-77
2021/12/28 11:13:21;;;;;;;12.43;7.97;;;;;;;10.33;58.30;93192.47;5044221;28;20059;-76
2021/12/28 11:15:47;;;;;;;15.38;8.88;;;;;;;10.16;58.61;93179.31;5044503;28;20060;-76
2021/12/28 11:18:33;;;;;;;14.38;7.57;;;;;;;10.00;59.11;93200.38;5047407;28;20420;-76
2021/12/28 11:21:09;;;;;;;11.18;7.03;;;;;;;9.82;58.73;93183.78;5046585;28;20070;-76
2021/12/28 11:23:34;;;;;;;9.95;6.35;;;;;;;9.80;58.98;93187.88;5045133;28;20025;-77
2021/12/28 11:26:20;;;;;;;11.27;5.97;;;;;;;10.27;58.58;93191.88;5047744;28;20036;-77
2021/12/28 11:29:05;;;;;;;39.25;20.42;;;;;;;10.11;58.70;93159.03;5051527;28;20036;-78
2021/12/28 11:31:38;;;;;;;;;;;;;;;10.50;58.30;93191.56;5048512;28;20052;-77
2021/12/28 11:34:11;;;;;;;13.90;8.55;;;;;;;10.87;56.91;93184.47;5044214;28;19913;-77
2021/12/28 11:36:44;;;;;;;13.45;8.48;;;;;;;10.92;56.89;93165.63;5045661;28;20045;-77
2021/12/28 11:39:15;;;;;;;12.80;8.60;;;;;;;11.13;56.11;93169.78;5046038;28;20044;-78